TimeMDT,TemperatureF,Dew PointF,Humidity,Sea Level PressureIn,VisibilityMPH,Wind Direction,Wind SpeedMPH,Gust SpeedMPH,PrecipitationIn,Events,Conditions,WindDirDegrees,DateUTC
12:15 AM,57.2,44.6,63,29.80,10.0,South,3.5,-,N/A,,Partly Cloudy,180,2011-10-05 06:15:00
12:35 AM,55.4,46.4,72,29.80,10.0,South,4.6,-,N/A,,Mostly Cloudy,170,2011-10-05 06:35:00
12:55 AM,55.4,46.4,72,29.80,10.0,South,5.8,-,N/A,,Mostly Cloudy,170,2011-10-05 06:55:00
1:15 AM,55.4,46.4,72,29.79,10.0,SSE,5.8,-,N/A,,Partly Cloudy,150,2011-10-05 07:15:00
1:35 AM,57.2,46.4,67,29.79,10.0,SE,9.2,-,N/A,,Clear,140,2011-10-05 07:35:00
1:55 AM,55.4,46.4,72,29.79,10.0,SSE,9.2,-,N/A,,Partly Cloudy,160,2011-10-05 07:55:00
2:15 AM,53.6,44.6,72,29.79,10.0,Calm,Calm,-,N/A,,Clear,0,2011-10-05 08:15:00
2:35 AM,55.4,44.6,67,29.79,10.0,SSE,6.9,-,N/A,,Partly Cloudy,160,2011-10-05 08:35:00
2:55 AM,55.4,46.4,72,29.78,10.0,Calm,Calm,-,N/A,,Mostly Cloudy,0,2011-10-05 08:55:00
3:15 AM,57.2,46.4,67,29.77,10.0,South,8.1,-,N/A,,Overcast,180,2011-10-05 09:15:00
3:55 AM,59.0,44.6,59,29.76,10.0,South,8.1,-,N/A,,Overcast,180,2011-10-05 09:55:00
4:15 AM,57.2,44.6,63,29.75,10.0,South,10.4,-,N/A,,Mostly Cloudy,190,2011-10-05 10:15:00
4:35 AM,57.2,44.6,63,29.74,10.0,South,8.1,-,N/A,,Mostly Cloudy,180,2011-10-05 10:35:00
4:55 AM,57.2,44.6,63,29.74,10.0,South,8.1,-,N/A,,Mostly Cloudy,190,2011-10-05 10:55:00
5:15 AM,57.2,46.4,67,29.76,8.0,SSW,12.7,-,N/A,,Overcast,210,2011-10-05 11:15:00
5:35 AM,59.0,46.4,63,29.75,10.0,SW,16.1,19.6,N/A,,Mostly Cloudy,220,2011-10-05 11:35:00
5:55 AM,57.2,44.6,63,29.74,10.0,SW,13.8,-,N/A,,Mostly Cloudy,220,2011-10-05 11:55:00
6:15 AM,57.2,44.6,63,29.74,10.0,SW,12.7,-,N/A,,Mostly Cloudy,220,2011-10-05 12:15:00
6:35 AM,57.2,44.6,63,29.74,10.0,SW,10.4,-,N/A,,Overcast,220,2011-10-05 12:35:00
6:50 AM,57.2,44.6,63,29.74,15.0,Variable,5.8,-,N/A,,Mostly Cloudy,0,2011-10-05 12:50:00
7:50 AM,55.4,42.8,63,29.73,15.0,Variable,5.8,-,N/A,,Mostly Cloudy,0,2011-10-05 13:50:00
11:48 AM,62.6,41.0,45,29.68,15.0,SE,9.2,-,N/A,,Overcast,130,2011-10-05 17:48:00
1:47 PM,53.6,44.6,72,29.70,15.0,SE,9.2,-,N/A,,Overcast,130,2011-10-05 19:47:00
3:55 PM,53.6,46.4,77,29.66,15.0,ESE,10.4,-,N/A,Rain,Light Rain Showers,120,2011-10-05 21:55:00
4:47 PM,51.8,48.2,88,29.65,10.0,ESE,5.8,-,N/A,Rain,Light Rain,120,2011-10-05 22:47:00
5:47 PM,51.8,48.2,88,29.65,10.0,East,6.9,-,N/A,,Overcast,90,2011-10-05 23:47:00
7:52 PM,51.8,48.2,88,29.62,15.0,Variable,4.6,-,N/A,,Overcast,0,2011-10-06 01:52:00
8:47 PM,51.8,46.4,82,29.60,15.0,ESE,6.9,-,N/A,,Overcast,110,2011-10-06 02:47:00
9:15 PM,53.6,46.4,77,29.61,10.0,SSE,11.5,-,N/A,,Overcast,150,2011-10-06 03:15:00
9:35 PM,51.8,44.6,76,29.61,10.0,SSE,15.0,-,N/A,,Overcast,160,2011-10-06 03:35:00
9:55 PM,51.8,44.6,76,29.60,10.0,SSE,6.9,-,0.01,,Overcast,150,2011-10-06 03:55:00
10:15 PM,51.8,46.4,82,29.61,10.0,South,10.4,-,0.02,,Mostly Cloudy,170,2011-10-06 04:15:00
10:35 PM,48.2,44.6,87,29.62,10.0,South,17.3,27.6,0.06,,Overcast,170,2011-10-06 04:35:00
10:55 PM,48.2,44.6,87,29.60,10.0,South,12.7,18.4,0.08,,Overcast,180,2011-10-06 04:55:00
11:15 PM,48.2,44.6,87,29.61,10.0,SSW,15.0,23.0,0.01,,Overcast,210,2011-10-06 05:15:00
11:35 PM,46.4,42.8,87,29.61,10.0,WSW,16.1,21.9,0.04,,Mostly Cloudy,240,2011-10-06 05:35:00
11:55 PM,46.4,41.0,81,29.61,10.0,SW,9.2,-,0.05,,Overcast,230,2011-10-06 05:55:00